createdAt,value
2023-05-01T00:00:27.092Z,51.111256
2023-05-01T00:01:26.965Z,51.111240
2023-05-01T00:02:27.168Z,51.111183
2023-05-01T00:03:27.104Z,51.111210
2023-05-01T00:04:26.951Z,51.111214
2023-05-01T00:05:27.000Z,51.111256
2023-05-01T00:06:26.974Z,51.111252
2023-05-01T00:07:26.930Z,51.111256
2023-05-01T00:08:26.909Z,51.111248
2023-05-01T00:09:26.873Z,51.111259
2023-05-01T00:10:26.813Z,51.111275
2023-05-01T00:11:26.878Z,51.111275
2023-05-01T00:12:26.804Z,51.111309
2023-05-01T00:13:26.788Z,51.111305
2023-05-01T00:14:26.842Z,51.111309
2023-05-01T00:15:26.813Z,51.111290
2023-05-01T00:16:26.847Z,51.111286
2023-05-01T00:17:26.852Z,51.111282
2023-05-01T00:18:26.764Z,51.111279
2023-05-01T00:19:26.838Z,51.111282
2023-05-01T00:20:27.207Z,51.111271
2023-05-01T00:21:26.883Z,51.111244
2023-05-01T00:22:26.825Z,51.111279
2023-05-01T00:23:26.913Z,51.111252
2023-05-01T00:24:26.848Z,51.111294
2023-05-01T00:25:26.878Z,51.111290
2023-05-01T00:26:26.843Z,51.111271
2023-05-01T00:27:26.767Z,51.111259
2023-05-01T00:28:26.788Z,51.111252
2023-05-01T00:29:26.760Z,51.111244
2023-05-01T00:30:26.793Z,51.111237
2023-05-01T00:31:26.817Z,51.111279
2023-05-01T00:32:26.816Z,51.111282
2023-05-01T00:33:26.810Z,51.111271
2023-05-01T00:34:26.710Z,51.111271
2023-05-01T00:35:27.631Z,51.111259
2023-05-01T00:36:26.747Z,51.111263
2023-05-01T00:37:26.676Z,51.111252
2023-05-01T00:38:26.615Z,51.111279
2023-05-01T00:39:26.652Z,51.111294
2023-05-01T00:40:26.582Z,51.111282
2023-05-01T00:41:26.608Z,51.111301
2023-05-01T00:42:26.679Z,51.111275
2023-05-01T00:43:26.703Z,51.111324
2023-05-01T00:44:26.755Z,51.111271
2023-05-01T00:45:26.717Z,51.111237
2023-05-01T00:46:26.839Z,51.111229
2023-05-01T00:47:26.751Z,51.111267
2023-05-01T00:48:26.773Z,51.111252
2023-05-01T00:49:26.616Z,51.111237
2023-05-01T00:50:26.712Z,51.111263
2023-05-01T00:51:26.654Z,51.111271
2023-05-01T00:52:26.593Z,51.111248
2023-05-01T00:53:26.679Z,51.111301
2023-05-01T00:54:26.611Z,51.111282
2023-05-01T00:55:26.600Z,51.111252
2023-05-01T00:56:26.601Z,51.111256
2023-05-01T00:57:26.526Z,51.111256
2023-05-01T00:58:26.582Z,51.111259
2023-05-01T00:59:27.136Z,51.111271
2023-05-01T01:00:26.483Z,51.111225
2023-05-01T01:01:26.554Z,51.111214
2023-05-01T01:02:26.606Z,51.111187
2023-05-01T01:03:26.545Z,51.111217
2023-05-01T01:04:26.620Z,51.111221
2023-05-01T01:05:26.591Z,51.111267
2023-05-01T01:06:27.598Z,51.111298
2023-05-01T01:07:26.617Z,51.111252
2023-05-01T01:08:26.491Z,51.111221
2023-05-01T01:09:26.590Z,51.111237
2023-05-01T01:10:26.460Z,51.111137
2023-05-01T01:11:26.421Z,51.111202
2023-05-01T01:12:26.421Z,51.111217
2023-05-01T01:13:26.458Z,51.111256
2023-05-01T01:14:26.477Z,51.111256
2023-05-01T01:15:26.403Z,51.111252
2023-05-01T01:16:26.386Z,51.111217
2023-05-01T01:17:26.363Z,51.111233
2023-05-01T01:18:26.349Z,51.111240
2023-05-01T01:19:26.343Z,51.111263
2023-05-01T01:20:26.855Z,51.111237
2023-05-01T01:21:26.399Z,51.111233
2023-05-01T01:22:26.396Z,51.111259
2023-05-01T01:23:26.425Z,51.111248
2023-05-01T01:24:26.369Z,51.111191
2023-05-01T01:25:26.428Z,51.111229
2023-05-01T01:26:26.472Z,51.111282
2023-05-01T01:27:26.372Z,51.111286
2023-05-01T01:28:26.386Z,51.111282
2023-05-01T01:29:26.369Z,51.111252
2023-05-01T01:30:26.442Z,51.111248
2023-05-01T01:31:26.441Z,51.111252
2023-05-01T01:32:26.444Z,51.111240
2023-05-01T01:33:26.426Z,51.111267
2023-05-01T01:34:26.222Z,51.111244
2023-05-01T01:35:26.270Z,51.111210
2023-05-01T01:36:26.223Z,51.111275
2023-05-01T01:37:26.320Z,51.111279
2023-05-01T01:38:26.192Z,51.111248
2023-05-01T01:39:26.216Z,51.111210
2023-05-01T01:40:26.210Z,51.111244
2023-05-01T01:41:26.241Z,51.111221
2023-05-01T01:42:26.385Z,51.111263
2023-05-01T01:43:26.256Z,51.111259
2023-05-01T01:44:26.243Z,51.111290
2023-05-01T01:45:26.263Z,51.111282
2023-05-01T01:46:26.284Z,51.111263
2023-05-01T01:47:26.254Z,51.111275
2023-05-01T01:48:26.286Z,51.111290
2023-05-01T01:49:26.265Z,51.111282
2023-05-01T01:50:27.230Z,51.111267
2023-05-01T01:51:26.249Z,51.111263
2023-05-01T01:52:26.170Z,51.111275
2023-05-01T01:53:26.181Z,51.111267
2023-05-01T01:54:26.083Z,51.111267
2023-05-01T01:55:26.109Z,51.111244
2023-05-01T01:56:26.165Z,51.111294
2023-05-01T01:57:26.067Z,51.111282
2023-05-01T01:58:26.146Z,51.111279
2023-05-01T01:59:26.120Z,51.111244
2023-05-01T02:00:26.153Z,51.111279
2023-05-01T02:01:26.083Z,51.111271
2023-05-01T02:02:26.215Z,51.111275
2023-05-01T02:03:26.238Z,51.111275
2023-05-01T02:04:26.182Z,51.111286
2023-05-01T02:05:26.113Z,51.111305
2023-05-01T02:06:26.178Z,51.111286
2023-05-01T02:07:26.092Z,51.111305
2023-05-01T02:08:26.170Z,51.111347
2023-05-01T02:09:26.098Z,51.111343
2023-05-01T02:10:26.148Z,51.111290
2023-05-01T02:11:26.023Z,51.111301
2023-05-01T02:12:26.074Z,51.111275
2023-05-01T02:13:26.041Z,51.111309
2023-05-01T02:14:26.069Z,51.111313
2023-05-01T02:15:26.112Z,51.111301
2023-05-01T02:16:26.079Z,51.111298
2023-05-01T02:17:26.062Z,51.111271
2023-05-01T02:18:26.085Z,51.111259
2023-05-01T02:19:26.047Z,51.111275
2023-05-01T02:20:26.065Z,51.111324
2023-05-01T02:21:26.213Z,51.111259
2023-05-01T02:22:25.874Z,51.111259
2023-05-01T02:23:25.933Z,51.111237
2023-05-01T02:24:25.936Z,51.111237
2023-05-01T02:25:26.605Z,51.111290
2023-05-01T02:26:25.926Z,51.111229
2023-05-01T02:27:25.925Z,51.111221
2023-05-01T02:28:25.869Z,51.111271
2023-05-01T02:29:25.820Z,51.111240
2023-05-01T02:30:25.947Z,51.111324
2023-05-01T02:31:25.987Z,51.111275
2023-05-01T02:32:25.912Z,51.111244
2023-05-01T02:33:25.934Z,51.111275
2023-05-01T02:34:25.933Z,51.111271
2023-05-01T02:35:25.880Z,51.111286
2023-05-01T02:36:25.914Z,51.111244
2023-05-01T02:37:25.937Z,51.111248
2023-05-01T02:38:25.917Z,51.111301
2023-05-01T02:39:25.893Z,51.111282
2023-05-01T02:40:25.871Z,51.111252
2023-05-01T02:41:26.861Z,51.111248
2023-05-01T02:42:25.806Z,51.111240
2023-05-01T02:43:25.820Z,51.111244
2023-05-01T02:44:25.739Z,51.111233
2023-05-01T02:45:25.821Z,51.111244
2023-05-01T02:46:25.972Z,51.111252
2023-05-01T02:47:25.839Z,51.111252
2023-05-01T02:48:25.776Z,51.111252
2023-05-01T02:49:25.713Z,51.111244
2023-05-01T02:50:25.742Z,51.111263
2023-05-01T02:51:25.753Z,51.111221
2023-05-01T02:52:26.799Z,51.111233
2023-05-01T02:53:25.777Z,51.111263
2023-05-01T02:54:25.825Z,51.111282
2023-05-01T02:55:25.783Z,51.111271
2023-05-01T02:56:25.759Z,51.111248
2023-05-01T02:57:25.817Z,51.111248
2023-05-01T02:58:25.834Z,51.111248
2023-05-01T02:59:25.746Z,51.111233
2023-05-01T03:00:25.739Z,51.111252
2023-05-01T03:01:25.731Z,51.111244
2023-05-01T03:02:25.771Z,51.111233
2023-05-01T03:03:25.752Z,51.111237
2023-05-01T03:04:25.897Z,51.111237
2023-05-01T03:05:25.724Z,51.111244
2023-05-01T03:06:25.666Z,51.111248
2023-05-01T03:07:25.605Z,51.111237
2023-05-01T03:08:25.603Z,51.111248
2023-05-01T03:09:25.688Z,51.111256
2023-05-01T03:10:25.684Z,51.111252
2023-05-01T03:11:25.586Z,51.111256
2023-05-01T03:12:25.554Z,51.111248
2023-05-01T03:13:25.777Z,51.111229
2023-05-01T03:14:25.630Z,51.111259
2023-05-01T03:15:25.734Z,51.111275
2023-05-01T03:16:26.653Z,51.111286
2023-05-01T03:17:25.798Z,51.111294
2023-05-01T03:18:25.617Z,51.111305
2023-05-01T03:19:25.679Z,51.111305
2023-05-01T03:20:25.929Z,51.111298
2023-05-01T03:21:25.567Z,51.111244
2023-05-01T03:22:25.607Z,51.111271
2023-05-01T03:23:25.554Z,51.111290
2023-05-01T03:24:25.461Z,51.111294
2023-05-01T03:25:25.517Z,51.111252
2023-05-01T03:26:25.752Z,51.111252
2023-05-01T03:27:25.476Z,51.111263
2023-05-01T03:28:25.628Z,51.111290
2023-05-01T03:29:25.436Z,51.111294
2023-05-01T03:30:25.450Z,51.111233
2023-05-01T03:31:25.753Z,51.111282
2023-05-01T03:32:25.867Z,51.111279
2023-05-01T03:33:25.543Z,51.111290
2023-05-01T03:34:25.541Z,51.111317
2023-05-01T03:35:25.600Z,51.111298
2023-05-01T03:36:25.506Z,51.111313
2023-05-01T03:37:25.565Z,51.111294
2023-05-01T03:38:25.481Z,51.111275
2023-05-01T03:39:25.467Z,51.111271
2023-05-01T03:40:25.405Z,51.111279
2023-05-01T03:41:25.440Z,51.111267
2023-05-01T03:42:25.460Z,51.111237
2023-05-01T03:43:25.418Z,51.111275
2023-05-01T03:44:25.484Z,51.111301
2023-05-01T03:45:25.347Z,51.111244
2023-05-01T03:46:25.348Z,51.111240
2023-05-01T03:47:25.334Z,51.111233
2023-05-01T03:48:25.467Z,51.111282
2023-05-01T03:49:25.348Z,51.111279
2023-05-01T03:50:25.288Z,51.111275
2023-05-01T03:51:25.283Z,51.111309
2023-05-01T03:52:25.252Z,51.111355
2023-05-01T03:53:25.340Z,51.111320
2023-05-01T03:54:25.328Z,51.111282
2023-05-01T03:55:25.349Z,51.111275
2023-05-01T03:56:25.318Z,51.111214
2023-05-01T03:57:25.331Z,51.111248
2023-05-01T03:58:25.405Z,51.111256
2023-05-01T03:59:25.311Z,51.111256
2023-05-01T04:00:25.299Z,51.111244
2023-05-01T04:01:25.307Z,51.111244
2023-05-01T04:02:25.404Z,51.111240
2023-05-01T04:03:25.480Z,51.111244
2023-05-01T04:04:25.391Z,51.111244
2023-05-01T04:05:25.318Z,51.111252
2023-05-01T04:06:25.360Z,51.111244
2023-05-01T04:07:25.351Z,51.111259
2023-05-01T04:08:25.211Z,51.111252
2023-05-01T04:09:25.254Z,51.111244
2023-05-01T04:10:25.209Z,51.111229
2023-05-01T04:11:25.176Z,51.111237
2023-05-01T04:12:25.217Z,51.111225
2023-05-01T04:13:25.144Z,51.111256
2023-05-01T04:14:25.112Z,51.111267
2023-05-01T04:15:25.183Z,51.111259
2023-05-01T04:16:25.215Z,51.111248
2023-05-01T04:17:25.102Z,51.111221
2023-05-01T04:18:25.110Z,51.111256
2023-05-01T04:19:25.170Z,51.111248
2023-05-01T04:20:25.217Z,51.111244
2023-05-01T04:21:25.156Z,51.111221
2023-05-01T04:22:25.163Z,51.111183
2023-05-01T04:23:25.180Z,51.111214
2023-05-01T04:24:25.187Z,51.111248
2023-05-01T04:25:25.181Z,51.111237
2023-05-01T04:26:25.084Z,51.111263
2023-05-01T04:27:26.151Z,51.111263
2023-05-01T04:28:25.090Z,51.111279
2023-05-01T04:29:25.128Z,51.111263
2023-05-01T04:30:25.115Z,51.111267
2023-05-01T04:31:25.559Z,51.111267
2023-05-01T04:32:25.144Z,51.111256
2023-05-01T04:33:25.062Z,51.111256
2023-05-01T04:34:25.063Z,51.111267
2023-05-01T04:35:25.100Z,51.111252
2023-05-01T04:36:24.979Z,51.111263
2023-05-01T04:37:25.048Z,51.111240
2023-05-01T04:38:25.163Z,51.111252
2023-05-01T04:39:24.953Z,51.111263
2023-05-01T04:40:25.099Z,51.111275
2023-05-01T04:41:25.000Z,51.111286
2023-05-01T04:42:25.086Z,51.111256
2023-05-01T04:43:25.065Z,51.111298
2023-05-01T04:44:25.020Z,51.111279
2023-05-01T04:45:25.020Z,51.111240
2023-05-01T04:46:25.025Z,51.111229
2023-05-01T04:47:24.995Z,51.111244
2023-05-01T04:48:25.026Z,51.111229
2023-05-01T04:49:24.965Z,51.111248
2023-05-01T04:50:24.988Z,51.111240
2023-05-01T04:51:24.984Z,51.111279
2023-05-01T04:52:24.948Z,51.111248
2023-05-01T04:53:24.998Z,51.111252
2023-05-01T04:54:24.916Z,51.111256
2023-05-01T04:55:24.955Z,51.111202
2023-05-01T04:56:24.891Z,51.111256
2023-05-01T04:57:24.825Z,51.111294
2023-05-01T04:58:24.871Z,51.111256
2023-05-01T04:59:24.850Z,51.111259
2023-05-01T05:00:24.884Z,51.111294
2023-05-01T05:01:24.989Z,51.111259
2023-05-01T05:02:25.011Z,51.111240
2023-05-01T05:03:24.993Z,51.111259
2023-05-01T05:04:24.963Z,51.111259
2023-05-01T05:05:24.895Z,51.111248
2023-05-01T05:06:24.980Z,51.111290
2023-05-01T05:07:24.877Z,51.111305
2023-05-01T05:08:24.842Z,51.111275
2023-05-01T05:09:24.847Z,51.111259
2023-05-01T05:10:24.921Z,51.111275
2023-05-01T05:11:24.840Z,51.111240
2023-05-01T05:12:24.815Z,51.111259
2023-05-01T05:13:24.832Z,51.111252
2023-05-01T05:14:24.819Z,51.111210
2023-05-01T05:15:24.744Z,51.111229
2023-05-01T05:16:24.760Z,51.111244
2023-05-01T05:17:24.774Z,51.111259
2023-05-01T05:18:24.732Z,51.111271
2023-05-01T05:19:24.743Z,51.111279
2023-05-01T05:20:24.678Z,51.111275
2023-05-01T05:21:24.725Z,51.111275
2023-05-01T05:22:24.836Z,51.111259
2023-05-01T05:23:24.800Z,51.111267
2023-05-01T05:24:24.752Z,51.111282
2023-05-01T05:25:24.747Z,51.111252
2023-05-01T05:26:24.832Z,51.111275
2023-05-01T05:27:24.797Z,51.111313
2023-05-01T05:28:24.778Z,51.111328
2023-05-01T05:29:24.739Z,51.111290
2023-05-01T05:30:27.229Z,51.111282
2023-05-01T05:31:24.669Z,51.111301
2023-05-01T05:32:24.999Z,51.111290
2023-05-01T05:33:24.738Z,51.111279
2023-05-01T05:34:24.639Z,51.111263
2023-05-01T05:35:24.558Z,51.111263
2023-05-01T05:36:24.656Z,51.111229
2023-05-01T05:37:24.609Z,51.111259
2023-05-01T05:38:42.596Z,51.111271
2023-05-01T05:39:25.569Z,51.111244
2023-05-01T05:40:24.557Z,51.111229
2023-05-01T05:41:24.655Z,51.111282
2023-05-01T05:42:24.611Z,51.111259
2023-05-01T05:43:27.358Z,51.111263
2023-05-01T05:44:25.595Z,51.111256
2023-05-01T05:45:24.684Z,51.111225
2023-05-01T05:46:24.617Z,51.111256
2023-05-01T05:47:24.626Z,51.111290
2023-05-01T05:48:24.688Z,51.111290
2023-05-01T05:49:24.608Z,51.111290
2023-05-01T05:50:24.632Z,51.111259
2023-05-01T05:51:24.508Z,51.111279
2023-05-01T05:52:24.481Z,51.111263
2023-05-01T05:53:26.017Z,51.111153
2023-05-01T05:54:25.511Z,51.111061
2023-05-01T05:55:24.452Z,51.111118
2023-05-01T05:56:24.554Z,51.111202
2023-05-01T05:57:24.547Z,51.111275
2023-05-01T05:58:24.560Z,51.111259
2023-05-01T05:59:24.561Z,51.111244
2023-05-01T06:00:24.523Z,51.111271
2023-05-01T06:01:24.494Z,51.111279
2023-05-01T06:02:24.539Z,51.111252
2023-05-01T06:03:24.597Z,51.111244
2023-05-01T06:04:24.514Z,51.111217
2023-05-01T06:05:24.576Z,51.111214
2023-05-01T06:06:24.504Z,51.111244
2023-05-01T06:07:24.455Z,51.111233
2023-05-01T06:08:24.366Z,51.111210
2023-05-01T06:09:24.373Z,51.111233
2023-05-01T06:10:24.444Z,51.111229
2023-05-01T06:11:24.354Z,51.111191
2023-05-01T06:12:24.457Z,51.111183
2023-05-01T06:13:24.420Z,51.111164
2023-05-01T06:14:24.489Z,51.111183
2023-05-01T06:15:24.385Z,51.111195
2023-05-01T06:16:24.479Z,51.111233
2023-05-01T06:17:24.357Z,51.111198
2023-05-01T06:18:24.421Z,51.111191
2023-05-01T06:19:24.412Z,51.111206
2023-05-01T06:20:24.406Z,51.111191
2023-05-01T06:21:24.417Z,51.111206
2023-05-01T06:22:24.370Z,51.111221
2023-05-01T06:23:25.405Z,51.111183
2023-05-01T06:24:24.335Z,51.111168
2023-05-01T06:25:24.569Z,51.111172
2023-05-01T06:26:24.241Z,51.111183
2023-05-01T06:27:24.282Z,51.111168
2023-05-01T06:28:24.349Z,51.111164
2023-05-01T06:29:24.194Z,51.111145
2023-05-01T06:30:24.210Z,51.111179
2023-05-01T06:31:24.266Z,51.111183
2023-05-01T06:32:24.479Z,51.111191
2023-05-01T06:33:24.191Z,51.111206
2023-05-01T06:34:24.264Z,51.111149
2023-05-01T06:35:24.311Z,51.111217
2023-05-01T06:36:24.270Z,51.111202
2023-05-01T06:37:31.010Z,51.111168
2023-05-01T06:38:26.847Z,51.111252
2023-05-01T06:39:24.246Z,51.111191
2023-05-01T06:40:24.235Z,51.111214
2023-05-01T06:41:24.597Z,51.111172
2023-05-01T06:42:24.198Z,51.111168
2023-05-01T06:43:24.232Z,51.111221
2023-05-01T06:44:24.276Z,51.111191
2023-05-01T06:45:24.204Z,51.111202
2023-05-01T06:46:24.267Z,51.111179
2023-05-01T06:47:24.178Z,51.111229
2023-05-01T06:48:24.075Z,51.111202
2023-05-01T06:49:24.103Z,51.111206
2023-05-01T06:50:24.150Z,51.111198
2023-05-01T06:51:24.164Z,51.111217
2023-05-01T06:52:24.444Z,51.111183
2023-05-01T06:53:24.193Z,51.111168
2023-05-01T06:54:24.160Z,51.111195
2023-05-01T06:55:24.116Z,51.111191
2023-05-01T06:56:24.215Z,51.111164
2023-05-01T06:57:24.252Z,51.111130
2023-05-01T06:58:24.706Z,51.111141
2023-05-01T06:59:25.242Z,51.111156
2023-05-01T07:00:24.171Z,51.111191
2023-05-01T07:01:24.149Z,51.111259
2023-05-01T07:02:24.171Z,51.111244
2023-05-01T07:03:24.109Z,51.111221
2023-05-01T07:04:23.968Z,51.111172
2023-05-01T07:05:24.071Z,51.111176
2023-05-01T07:06:24.254Z,51.111172
2023-05-01T07:07:23.968Z,51.111202
2023-05-01T07:08:24.000Z,51.111233
2023-05-01T07:09:24.089Z,51.111275
2023-05-01T07:10:24.107Z,51.111256
2023-05-01T07:11:24.157Z,51.111240
2023-05-01T07:12:24.367Z,51.111221
2023-05-01T07:13:23.994Z,51.111221
2023-05-01T07:14:23.999Z,51.111214
2023-05-01T07:15:24.030Z,51.111221
2023-05-01T07:16:24.106Z,51.111237
2023-05-01T07:17:24.086Z,51.111248
2023-05-01T07:18:25.161Z,51.111237
2023-05-01T07:19:24.033Z,51.111244
2023-05-01T07:20:23.951Z,51.111256
2023-05-01T07:21:24.027Z,51.111240
2023-05-01T07:22:24.124Z,51.111248
2023-05-01T07:23:23.902Z,51.111259
2023-05-01T07:24:23.924Z,51.111252
2023-05-01T07:25:24.955Z,51.111240
2023-05-01T07:26:24.933Z,51.111237
2023-05-01T07:27:23.792Z,51.111252
2023-05-01T07:28:23.886Z,51.111263
2023-05-01T07:29:23.861Z,51.111256
2023-05-01T07:30:24.109Z,51.111256
2023-05-01T07:31:23.947Z,51.111252
2023-05-01T07:32:23.905Z,51.111237
2023-05-01T07:33:23.950Z,51.111237
2023-05-01T07:34:23.929Z,51.111244
2023-05-01T07:35:23.891Z,51.111229
2023-05-01T07:36:23.868Z,51.111271
2023-05-01T07:37:24.231Z,51.111256
2023-05-01T07:38:23.931Z,51.111240
2023-05-01T07:39:24.977Z,51.111240
2023-05-01T07:40:24.363Z,51.111248
2023-05-01T07:41:24.473Z,51.111259
2023-05-01T07:42:24.085Z,51.111259
2023-05-01T07:43:24.447Z,51.111263
2023-05-01T07:44:24.051Z,51.111240
2023-05-01T07:45:23.984Z,51.111252
2023-05-01T07:46:23.862Z,51.111267
2023-05-01T07:47:23.847Z,51.111290
2023-05-01T07:48:23.888Z,51.111263
2023-05-01T07:49:24.101Z,51.111282
2023-05-01T07:50:24.180Z,51.111244
2023-05-01T07:51:24.014Z,51.111267
2023-05-01T07:52:24.338Z,51.111279
2023-05-01T07:53:23.839Z,51.111305
2023-05-01T07:54:23.921Z,51.111256
2023-05-01T07:55:23.713Z,51.111313
2023-05-01T07:56:23.681Z,51.111320
2023-05-01T07:57:23.743Z,51.111298
2023-05-01T07:58:23.671Z,51.111290
2023-05-01T07:59:24.022Z,51.111294
2023-05-01T08:00:24.264Z,51.111294
2023-05-01T08:01:24.671Z,51.111298
2023-05-01T08:02:23.672Z,51.111320
2023-05-01T08:03:23.825Z,51.111313
2023-05-01T08:04:23.640Z,51.111309
2023-05-01T08:05:24.128Z,51.111279
2023-05-01T08:06:23.765Z,51.111294
2023-05-01T08:07:23.548Z,51.111309
2023-05-01T08:08:23.561Z,51.111351
2023-05-01T08:09:23.754Z,51.111343
2023-05-01T08:10:23.742Z,51.111355
2023-05-01T08:11:23.726Z,51.111313
2023-05-01T08:12:23.694Z,51.111256
2023-05-01T08:13:24.260Z,51.111275
2023-05-01T08:14:23.776Z,51.111275
2023-05-01T08:15:24.177Z,51.111301
2023-05-01T08:16:23.890Z,51.111324
2023-05-01T08:17:23.605Z,51.111279
2023-05-01T08:18:23.992Z,51.111309
2023-05-01T08:19:24.030Z,51.111305
2023-05-01T08:20:24.155Z,51.111301
2023-05-01T08:21:23.776Z,51.111290
2023-05-01T08:22:23.625Z,51.111282
2023-05-01T08:23:23.587Z,51.111229
2023-05-01T08:24:23.585Z,51.111248
2023-05-01T08:25:23.607Z,51.111271
2023-05-01T08:26:23.989Z,51.111263
2023-05-01T08:27:23.382Z,51.111267
2023-05-01T08:28:23.484Z,51.111263
2023-05-01T08:29:23.401Z,51.111279
2023-05-01T08:30:24.397Z,51.111244
2023-05-01T08:31:23.514Z,51.111301
2023-05-01T08:32:23.623Z,51.111305
2023-05-01T08:33:23.480Z,51.111309
2023-05-01T08:34:23.492Z,51.111332
2023-05-01T08:35:23.575Z,51.111336
2023-05-01T08:36:23.472Z,51.111305
2023-05-01T08:37:24.076Z,51.111301
2023-05-01T08:38:23.380Z,51.111320
2023-05-01T08:39:23.833Z,51.111309
2023-05-01T08:40:23.466Z,51.111320
2023-05-01T08:41:24.500Z,51.111328
2023-05-01T08:42:24.002Z,51.111328
2023-05-01T08:43:24.150Z,51.111317
2023-05-01T08:44:23.963Z,51.111328
2023-05-01T08:45:23.725Z,51.111355
2023-05-01T08:46:29.791Z,51.111336
2023-05-01T08:47:25.891Z,51.111298
2023-05-01T08:48:23.759Z,51.111294
2023-05-01T08:49:23.956Z,51.111290
2023-05-01T08:50:23.906Z,51.111309
2023-05-01T08:51:23.438Z,51.111313
2023-05-01T08:52:23.303Z,51.111355
2023-05-01T08:53:23.407Z,51.111336
2023-05-01T08:54:23.320Z,51.111286
2023-05-01T08:55:23.330Z,51.111309
2023-05-01T08:56:23.342Z,51.111340
2023-05-01T08:57:23.290Z,51.111320
2023-05-01T08:58:23.309Z,51.111336
2023-05-01T08:59:23.431Z,51.111362
2023-05-01T09:00:23.269Z,51.111347
2023-05-01T09:01:23.276Z,51.111340
2023-05-01T09:02:23.248Z,51.111305
2023-05-01T09:03:23.189Z,51.111305
2023-05-01T09:04:23.304Z,51.111301
2023-05-01T09:05:23.142Z,51.111294
2023-05-01T09:06:23.270Z,51.111446
2023-05-01T09:07:23.171Z,51.111328
2023-05-01T09:08:23.119Z,51.111401
2023-05-01T09:09:23.236Z,51.111382
2023-05-01T09:10:23.224Z,51.111282
2023-05-01T09:11:23.080Z,51.111286
2023-05-01T09:12:23.249Z,51.111313
2023-05-01T09:13:23.138Z,51.111290
2023-05-01T09:14:23.180Z,51.111336
2023-05-01T09:15:23.182Z,51.111439
2023-05-01T09:16:23.294Z,51.111465
2023-05-01T09:17:55.446Z,51.111343
2023-05-01T09:18:22.981Z,51.111359
2023-05-01T09:19:55.142Z,51.111294
2023-05-01T09:23:33.219Z,51.111523
2023-05-01T09:28:08.706Z,51.111439
2023-05-01T09:29:14.699Z,51.111351
2023-05-01T09:29:42.682Z,51.111317
2023-05-01T09:30:42.639Z,51.111351
2023-05-01T09:31:42.721Z,51.111362
2023-05-01T09:46:00.251Z,51.111320
2023-05-01T09:55:06.732Z,51.111340
2023-05-01T09:59:08.318Z,51.111320
2023-05-01T09:59:36.393Z,51.111359
2023-05-01T10:01:09.946Z,51.111351
2023-05-01T10:01:36.434Z,51.111340
2023-05-01T10:02:36.418Z,51.111305
2023-05-01T10:03:36.373Z,51.111324
2023-05-01T10:04:36.750Z,51.111362
2023-05-01T10:05:36.378Z,51.111336
2023-05-01T10:49:36.562Z,51.111279
2023-05-01T10:50:36.649Z,51.111279
2023-05-01T10:51:36.623Z,51.111286
2023-05-01T10:52:36.671Z,51.111294
2023-05-01T10:53:36.554Z,51.111263
2023-05-01T10:58:33.964Z,51.111324
2023-05-01T11:36:50.707Z,51.111317
2023-05-01T11:37:17.596Z,51.111320
2023-05-01T11:38:17.724Z,51.111309
2023-05-01T11:39:17.591Z,51.111328
2023-05-01T11:40:17.686Z,51.111320
2023-05-01T11:45:22.439Z,51.111282
2023-05-01T12:02:14.319Z,51.111271
2023-05-01T12:06:12.721Z,51.111286
2023-05-01T12:07:13.128Z,51.111309
2023-05-01T12:08:14.164Z,51.111305
2023-05-01T12:09:14.408Z,51.111282
2023-05-01T12:14:37.010Z,51.111233
2023-05-01T12:15:36.945Z,51.111229
2023-05-01T12:16:36.854Z,51.111191
2023-05-01T12:17:37.320Z,51.111198
2023-05-01T12:19:08.878Z,51.111210
2023-05-01T12:19:36.681Z,51.111229
2023-05-01T12:57:20.754Z,51.111149
2023-05-01T12:58:21.879Z,51.111195
2023-05-01T13:19:05.587Z,51.111183
2023-05-01T15:20:42.739Z,51.111198
2023-05-01T15:21:42.973Z,51.111187
2023-05-01T18:08:54.129Z,51.111301
2023-05-01T22:27:35.915Z,51.111137
2023-05-01T22:31:56.479Z,51.111271
2023-05-01T22:32:56.281Z,51.111294
2023-05-01T22:33:56.354Z,51.111294
2023-05-01T22:34:56.247Z,51.111263
2023-05-01T22:35:56.443Z,51.111267
2023-05-01T22:36:56.328Z,51.111259
2023-05-01T22:37:56.237Z,51.111267
2023-05-01T22:38:56.125Z,51.111286
2023-05-01T22:39:56.192Z,51.111275
2023-05-01T22:40:56.124Z,51.111259
2023-05-01T22:41:56.169Z,51.111267
2023-05-01T22:42:56.106Z,51.111248
2023-05-01T22:43:56.153Z,51.111263
2023-05-01T22:44:56.153Z,51.111248
2023-05-01T22:45:56.133Z,51.111275
2023-05-01T22:46:56.217Z,51.111267
2023-05-01T22:47:56.150Z,51.111229
2023-05-01T22:48:56.176Z,51.111256
2023-05-01T22:49:56.193Z,51.111229
2023-05-01T22:50:56.128Z,51.111237
2023-05-01T22:51:56.107Z,51.111244
2023-05-01T22:52:56.178Z,51.111256
2023-05-01T22:53:56.159Z,51.111256
2023-05-01T22:54:56.158Z,51.111233
2023-05-01T22:55:56.075Z,51.111290
2023-05-01T22:56:57.083Z,51.111237
2023-05-01T22:57:56.127Z,51.111191
2023-05-01T22:58:56.159Z,51.111248
2023-05-01T22:59:56.102Z,51.111214
2023-05-01T23:01:00.887Z,51.111259
2023-05-01T23:01:57.107Z,51.111263
2023-05-01T23:02:55.997Z,51.111279
2023-05-01T23:03:56.251Z,51.111252
2023-05-01T23:04:56.067Z,51.111305
2023-05-01T23:05:56.014Z,51.111282
2023-05-01T23:06:56.019Z,51.111279
2023-05-01T23:07:56.159Z,51.111240
2023-05-01T23:08:56.098Z,51.111267
2023-05-01T23:09:56.012Z,51.111233
2023-05-01T23:10:55.976Z,51.111324
2023-05-01T23:11:55.977Z,51.111336
2023-05-01T23:12:56.011Z,51.111305
2023-05-01T23:13:55.972Z,51.111263
2023-05-01T23:14:56.073Z,51.111256
2023-05-01T23:15:56.004Z,51.111172
2023-05-01T23:16:55.993Z,51.111187
2023-05-01T23:17:55.948Z,51.111195
2023-05-01T23:18:55.870Z,51.111237
2023-05-01T23:19:55.985Z,51.111271
2023-05-01T23:20:55.822Z,51.111279
2023-05-01T23:21:55.864Z,51.111195
2023-05-01T23:26:06.149Z,51.111252
2023-05-01T23:27:06.220Z,51.111221
2023-05-01T23:28:06.163Z,51.111217
2023-05-01T23:29:06.292Z,51.111248
2023-05-01T23:30:06.451Z,51.111286
2023-05-01T23:31:06.281Z,51.111275
2023-05-01T23:32:06.380Z,51.111256
2023-05-01T23:33:06.308Z,51.111259
2023-05-01T23:34:06.207Z,51.111267
2023-05-01T23:35:06.241Z,51.111263
2023-05-01T23:36:06.243Z,51.111271
2023-05-01T23:37:06.206Z,51.111256
2023-05-01T23:38:06.305Z,51.111282
2023-05-01T23:39:06.224Z,51.111172
2023-05-01T23:40:06.207Z,51.111225
2023-05-01T23:41:06.230Z,51.111271
2023-05-01T23:42:06.412Z,51.111259
2023-05-01T23:43:06.279Z,51.111259
2023-05-01T23:44:06.257Z,51.111279
2023-05-01T23:45:06.133Z,51.111290
2023-05-01T23:46:06.097Z,51.111259
2023-05-01T23:47:06.249Z,51.111267
2023-05-01T23:48:06.087Z,51.111267
2023-05-01T23:49:06.083Z,51.111279
2023-05-01T23:50:06.102Z,51.111290
2023-05-01T23:51:05.995Z,51.111286
2023-05-01T23:52:06.130Z,51.111286
2023-05-01T23:53:06.085Z,51.111271